Time;durP1;ratioP1;P1;durP2;ratioP2;P2;SDS_P1;SDS_P2;PMS_P1;PMS_P2;Temp;Humidity;BMP_temperature;BMP_pressure;BME280_temperature;BME280_humidity;BME280_pressure;Samples;Min_cycle;Max_cycle;Signal;HPM_P1;HPM_P2
2022/11/29 00:01:29;;;;;;;23.83;14.88;;;;;;;6.35;91.68;98403.97;5005440;28;20032;-63
2022/11/29 00:03:55;;;;;;;23.23;14.90;;;;;;;6.20;91.92;98395.72;5012988;28;20041;-64
2022/11/29 00:06:26;;;;;;;22.90;15.18;;;;;;;6.33;91.08;98396.38;5026909;28;20022;-62
2022/11/29 00:08:56;;;;;;;23.27;14.98;;;;;;;6.37;91.62;98390.94;5021189;28;20052;-64
2022/11/29 00:14:14;;;;;;;23.30;15.35;;;;;;;6.38;91.33;98390.84;5036564;28;20799;-64
2022/11/29 00:16:40;;;;;;;30.63;17.25;;;;;;;6.22;92.99;98378.31;5012697;28;20029;-63
2022/11/29 00:19:06;;;;;;;24.98;15.65;;;;;;;5.95;93.54;98351.22;5012040;28;20029;-62
2022/11/29 00:21:33;;;;;;;25.20;16.48;;;;;;;5.92;93.01;98340.28;5002755;28;20028;-67
2022/11/29 00:23:58;;;;;;;23.88;15.95;;;;;;;6.25;93.55;98383.25;5018559;28;20484;-64
2022/11/29 00:26:24;;;;;;;24.17;15.88;;;;;;;6.26;93.08;98387.50;5002999;28;20029;-64
2022/11/29 00:28:49;;;;;;;25.42;15.60;;;;;;;6.33;92.89;98377.47;5021852;28;20025;-64
2022/11/29 00:31:17;;;;;;;23.23;15.73;;;;;;;6.23;93.34;98371.41;5028307;28;20545;-68
2022/11/29 00:33:42;;;;;;;22.38;15.75;;;;;;;6.29;93.43;98376.09;5009611;28;20040;-68
2022/11/29 00:36:08;;;;;;;22.98;15.52;;;;;;;6.27;93.70;98368.47;5020397;28;20033;-62
2022/11/29 00:38:34;;;;;;;22.13;15.73;;;;;;;6.37;93.84;98378.03;5004534;28;20135;-68
2022/11/29 00:40:59;;;;;;;23.73;16.20;;;;;;;6.34;93.74;98367.03;5023487;28;20496;-65
2022/11/29 00:43:24;;;;;;;21.80;14.40;;;;;;;6.38;93.10;98372.75;5023638;28;20120;-66
2022/11/29 00:45:50;;;;;;;22.10;15.52;;;;;;;6.47;93.43;98373.78;5024120;28;20025;-65
2022/11/29 00:48:15;;;;;;;23.27;15.30;;;;;;;6.43;93.80;98360.28;5008695;28;20040;-65
2022/11/29 00:50:41;;;;;;;23.65;16.15;;;;;;;6.24;93.92;98324.00;5026007;28;20754;-67
2022/11/29 00:53:06;;;;;;;23.60;15.60;;;;;;;6.24;94.16;98335.16;5016866;28;20033;-65
2022/11/29 00:55:31;;;;;;;26.65;15.82;;;;;;;6.39;93.98;98371.00;5027387;28;20082;-64
2022/11/29 00:57:57;;;;;;;26.00;15.85;;;;;;;6.35;93.78;98366.09;5020119;28;20083;-66
2022/11/29 01:00:22;;;;;;;22.15;16.05;;;;;;;6.46;93.64;98369.53;5003190;28;20033;-68
2022/11/29 01:02:47;;;;;;;23.50;15.80;;;;;;;6.35;93.52;98360.94;5023410;28;20033;-65
2022/11/29 01:05:13;;;;;;;24.42;15.70;;;;;;;6.48;93.20;98371.09;5005929;28;20025;-66
2022/11/29 01:07:38;;;;;;;27.05;16.45;;;;;;;6.42;94.07;98368.97;5007157;28;20552;-64
2022/11/29 01:10:04;;;;;;;24.15;15.82;;;;;;;6.32;94.42;98362.94;5021749;28;20024;-66
2022/11/29 01:12:29;;;;;;;20.75;14.70;;;;;;;6.26;94.52;98359.09;5026970;28;20600;-65
2022/11/29 01:14:57;;;;;;;23.73;15.88;;;;;;;6.23;95.26;98361.91;5024187;28;20105;-63
2022/11/29 01:17:22;;;;;;;23.27;15.57;;;;;;;6.16;95.26;98363.34;5006989;28;20037;-62
2022/11/29 01:19:48;;;;;;;25.30;17.10;;;;;;;6.18;95.24;98365.81;5030357;28;20029;-65
2022/11/29 01:22:13;;;;;;;22.58;16.00;;;;;;;6.23;95.13;98366.25;5025522;28;20551;-63
2022/11/29 01:24:39;;;;;;;25.67;17.67;;;;;;;6.18;95.30;98364.03;5017719;28;20060;-64
2022/11/29 01:27:04;;;;;;;22.42;16.75;;;;;;;6.00;95.27;98326.78;5007523;28;20034;-65
2022/11/29 01:29:29;;;;;;;26.77;16.45;;;;;;;6.27;95.07;98365.06;5018512;28;20392;-63
2022/11/29 01:31:55;;;;;;;26.23;17.17;;;;;;;6.29;95.83;98356.22;5000954;28;20124;-63
2022/11/29 01:34:20;;;;;;;25.23;16.80;;;;;;;6.35;95.32;98365.25;5022698;28;20048;-65
2022/11/29 01:36:46;;;;;;;27.10;17.70;;;;;;;6.35;94.90;98357.50;5008700;28;20053;-64
2022/11/29 01:39:11;;;;;;;28.13;17.35;;;;;;;6.26;95.13;98358.25;5014194;28;20100;-64
2022/11/29 01:41:37;;;;;;;26.05;17.15;;;;;;;6.26;94.54;98364.25;5005571;28;20029;-67
2022/11/29 01:44:11;;;;;;;27.17;17.70;;;;;;;6.26;95.31;98356.50;5021852;28;20523;-64
2022/11/29 01:46:40;;;;;;;27.33;17.40;;;;;;;5.88;95.48;98302.75;5031996;28;20339;-65
2022/11/29 01:49:26;;;;;;;21.65;16.27;;;;;;;6.01;94.87;98313.75;5013427;28;20028;-64
2022/11/29 01:51:58;;;;;;;26.88;17.70;;;;;;;6.18;95.84;98345.16;4995695;28;20051;-66
2022/11/29 01:54:24;;;;;;;24.67;16.98;;;;;;;6.16;96.26;98333.16;5049945;28;20852;-64
2022/11/29 01:56:51;;;;;;;25.70;17.73;;;;;;;6.13;96.55;98343.75;5008174;28;20040;-64
2022/11/29 01:59:19;;;;;;;24.13;16.65;;;;;;;6.14;96.14;98344.56;5009654;28;20036;-63
2022/11/29 02:01:45;;;;;;;29.08;18.05;;;;;;;5.93;96.18;98313.50;5007076;28;20033;-64
2022/11/29 02:04:11;;;;;;;27.98;17.75;;;;;;;6.16;96.22;98343.50;5026023;28;20100;-63
2022/11/29 02:06:36;;;;;;;22.73;16.35;;;;;;;6.21;96.11;98340.56;5024139;28;20124;-66
2022/11/29 02:09:03;;;;;;;24.45;17.33;;;;;;;6.15;97.63;98336.72;5032785;28;20095;-65
2022/11/29 02:11:38;;;;;;;25.25;17.92;;;;;;;6.00;96.51;98304.38;5007914;28;20088;-66
2022/11/29 02:14:30;;;;;;;27.95;17.38;;;;;;;6.11;97.11;98337.88;5030564;28;20431;-64
2022/11/29 02:17:04;;;;;;;24.48;16.52;;;;;;;6.09;96.59;98333.78;4995297;28;20094;-63
2022/11/29 02:19:46;;;;;;;25.75;17.50;;;;;;;5.87;97.06;98281.28;5029971;28;20029;-63
2022/11/29 02:22:50;;;;;;;23.40;17.27;;;;;;;6.22;95.94;98323.28;4996201;28;20067;-69
2022/11/29 02:25:23;;;;;;;27.50;17.55;;;;;;;6.02;96.93;98323.13;5021052;28;20108;-63
2022/11/29 02:27:58;;;;;;;23.48;16.38;;;;;;;5.92;98.22;98322.22;5022345;28;20037;-65
2022/11/29 02:30:30;;;;;;;22.13;15.85;;;;;;;6.06;98.07;98318.53;5049026;28;20701;-64
2022/11/29 02:33:07;;;;;;;24.98;16.35;;;;;;;5.84;97.68;98283.28;5022824;28;20053;-62
2022/11/29 02:35:51;;;;;;;25.55;16.40;;;;;;;5.71;98.10;98270.53;5026774;28;20065;-62
2022/11/29 02:38:32;;;;;;;21.48;15.23;;;;;;;5.68;98.91;98283.69;5034207;28;20069;-63
2022/11/29 02:41:09;;;;;;;25.05;16.80;;;;;;;5.99;98.43;98313.06;5023765;28;20048;-64
2022/11/29 02:43:48;;;;;;;31.60;16.98;;;;;;;5.94;98.04;98295.31;5055978;28;20299;-63
2022/11/29 02:46:20;;;;;;;27.58;16.25;;;;;;;6.06;98.03;98310.78;5023398;28;20029;-64
2022/11/29 02:48:45;;;;;;;21.15;15.73;;;;;;;6.11;97.78;98306.09;5025034;28;20048;-64
2022/11/29 02:51:25;;;;;;;25.02;16.15;;;;;;;6.10;97.65;98309.63;5021845;28;20032;-64
2022/11/29 02:53:52;;;;;;;;;;;;;;;6.10;97.73;98304.47;5023600;28;20026;-61
2022/11/29 02:56:39;;;;;;;23.95;15.15;;;;;;;6.07;98.19;98295.19;5032972;28;20003;-66
2022/11/29 02:59:11;;;;;;;23.45;15.55;;;;;;;6.08;98.19;98303.78;5029928;28;20033;-64
2022/11/29 03:01:45;;;;;;;25.33;16.40;;;;;;;5.88;98.24;98257.13;5029112;28;20036;-65
2022/11/29 03:04:29;;;;;;;26.98;16.33;;;;;;;6.02;97.95;98299.09;5051846;28;20119;-67
2022/11/29 03:07:12;;;;;;;26.85;15.85;;;;;;;5.91;97.80;98295.59;5022936;28;20037;-65
2022/11/29 03:09:42;;;;;;;24.55;15.98;;;;;;;5.81;99.24;98292.09;5022236;28;20120;-62
2022/11/29 03:12:14;;;;;;;24.75;15.63;;;;;;;5.90;98.50;98290.56;5009832;28;20123;-63
2022/11/29 03:14:55;;;;;;;26.17;16.08;;;;;;;5.85;98.67;98288.31;5053383;28;20316;-64
2022/11/29 03:17:48;;;;;;;26.20;16.02;;;;;;;5.74;99.37;98291.75;5005743;28;20034;-64
2022/11/29 03:20:26;;;;;;;23.88;16.40;;;;;;;5.75;99.87;98296.00;5014547;28;20033;-66
2022/11/29 03:23:04;;;;;;;24.73;16.10;;;;;;;5.86;99.15;98295.13;5012348;28;20118;-63
2022/11/29 03:25:38;;;;;;;25.50;16.95;;;;;;;5.87;98.75;98299.34;5030009;28;20029;-65
2022/11/29 03:28:09;;;;;;;23.20;16.20;;;;;;;5.86;98.67;98292.56;5007993;28;20144;-66
2022/11/29 03:30:37;;;;;;;23.80;16.77;;;;;;;5.73;99.28;98289.28;5029720;28;20041;-63
2022/11/29 03:33:14;;;;;;;25.17;16.95;;;;;;;5.85;98.93;98293.47;5033717;28;20037;-64
2022/11/29 03:36:08;;;;;;;22.10;15.13;;;;;;;5.74;99.49;98294.34;5019161;28;20155;-65
2022/11/29 03:38:39;;;;;;;24.58;16.38;;;;;;;5.85;99.14;98303.81;4983461;28;20045;-64
2022/11/29 03:41:22;;;;;;;25.05;16.08;;;;;;;5.73;98.59;98292.72;5024537;28;20041;-64
2022/11/29 03:43:59;;;;;;;25.00;16.25;;;;;;;5.72;99.03;98298.81;5009349;28;20123;-65
2022/11/29 03:46:46;;;;;;;25.88;16.25;;;;;;;5.81;98.83;98305.00;5008999;28;20540;-63
2022/11/29 03:49:26;;;;;;;23.80;16.30;;;;;;;5.73;98.85;98295.28;5045732;28;20492;-63
2022/11/29 03:52:20;;;;;;;22.85;16.33;;;;;;;5.66;99.36;98298.44;5000926;28;20026;-63
2022/11/29 03:54:48;;;;;;;26.42;16.65;;;;;;;5.58;98.95;98299.91;5013927;28;20041;-65
2022/11/29 03:57:19;;;;;;;24.75;16.77;;;;;;;5.56;99.59;98298.38;5018371;28;20069;-66
2022/11/29 04:00:03;;;;;;;25.58;15.65;;;;;;;5.61;98.29;98300.59;5014685;28;20809;-63
2022/11/29 04:02:33;;;;;;;24.77;16.75;;;;;;;5.62;98.85;98304.81;5015801;28;20892;-65
2022/11/29 04:04:59;;;;;;;26.00;15.88;;;;;;;5.61;98.34;98296.25;5047395;28;20155;-64
2022/11/29 04:07:46;;;;;;;23.13;16.27;;;;;;;5.66;99.26;98306.19;5020890;28;20108;-65
2022/11/29 04:10:23;;;;;;;25.00;16.33;;;;;;;5.61;98.29;98305.75;5023315;28;20045;-64
2022/11/29 04:13:07;;;;;;;24.95;16.50;;;;;;;5.61;98.47;98308.34;5027133;28;20154;-64
2022/11/29 04:15:51;;;;;;;24.23;16.05;;;;;;;5.36;98.56;98264.63;5020564;28;20037;-65
2022/11/29 04:18:41;;;;;;;23.10;15.57;;;;;;;5.49;98.65;98310.09;5016872;28;20084;-67
2022/11/29 04:21:22;;;;;;;24.10;15.77;;;;;;;5.52;97.97;98296.97;5018523;28;20037;-65
2022/11/29 04:23:51;;;;;;;24.83;15.65;;;;;;;5.51;98.63;98301.31;5004348;28;20067;-63
2022/11/29 04:26:48;;;;;;;24.35;16.05;;;;;;;5.55;99.54;98305.28;5018499;28;20038;-63
2022/11/29 04:29:48;;;;;;;23.52;15.68;;;;;;;5.62;98.40;98305.63;5000294;28;20112;-66
2022/11/29 04:32:51;;;;;;;26.55;16.70;;;;;;;5.62;98.35;98302.22;5016642;28;20532;-67
2022/11/29 04:35:22;;;;;;;21.98;14.93;;;;;;;5.54;97.57;98287.34;5049248;28;20064;-63
2022/11/29 04:38:10;;;;;;;22.77;16.00;;;;;;;5.70;96.76;98303.25;5021292;28;20565;-64
2022/11/29 04:40:55;;;;;;;25.98;16.73;;;;;;;5.41;97.11;98261.72;5006844;28;20455;-67
2022/11/29 04:43:52;;;;;;;23.00;15.55;;;;;;;5.71;96.30;98281.69;5003455;28;20441;-62
2022/11/29 04:46:38;;;;;;;23.60;15.65;;;;;;;5.80;96.95;98302.53;5026602;28;20090;-65
2022/11/29 04:49:25;;;;;;;23.90;16.13;;;;;;;5.40;96.59;98257.47;5023013;28;20034;-64
2022/11/29 04:52:03;;;;;;;24.90;15.93;;;;;;;5.72;97.22;98303.16;5022095;28;20037;-62
2022/11/29 04:54:50;;;;;;;24.30;16.42;;;;;;;5.77;96.83;98301.03;5025434;28;20474;-62
2022/11/29 04:58:07;;;;;;;27.23;16.63;;;;;;;5.87;96.22;98298.53;5026328;28;20041;-62
2022/11/29 05:00:41;;;;;;;22.55;14.63;;;;;;;5.75;97.04;98288.25;4987353;28;20423;-64
2022/11/29 05:03:15;;;;;;;27.10;16.50;;;;;;;5.80;98.12;98298.19;5004330;28;20030;-66
2022/11/29 05:06:01;;;;;;;28.77;16.55;;;;;;;5.79;97.13;98288.81;5026799;28;20026;-64
2022/11/29 05:08:50;;;;;;;24.60;17.33;;;;;;;5.75;98.12;98298.56;5021381;28;20041;-66
2022/11/29 05:11:34;;;;;;;24.27;16.48;;;;;;;5.47;96.55;98255.25;5034889;28;20040;-63
2022/11/29 05:13:59;;;;;;;24.25;17.58;;;;;;;5.68;97.60;98297.41;5026972;28;20041;-67
2022/11/29 05:16:40;;;;;;;21.85;15.70;;;;;;;5.66;97.37;98299.28;5024983;28;20040;-63
2022/11/29 05:19:27;;;;;;;24.55;16.08;;;;;;;5.68;96.56;98302.56;5025096;28;20528;-68
2022/11/29 05:22:23;;;;;;;23.38;16.10;;;;;;;5.72;97.56;98303.97;5019810;28;20034;-66
2022/11/29 05:25:10;;;;;;;25.23;16.35;;;;;;;5.73;97.34;98304.78;5021149;28;20037;-65
2022/11/29 05:27:50;;;;;;;23.30;16.30;;;;;;;5.67;97.15;98290.59;5027615;28;20524;-67
2022/11/29 05:30:19;;;;;;;25.95;17.20;;;;;;;5.79;97.41;98306.88;5006483;28;20049;-66
2022/11/29 05:32:48;;;;;;;22.75;16.05;;;;;;;5.79;98.01;98309.47;5013879;28;20030;-65
2022/11/29 05:35:33;;;;;;;24.23;15.73;;;;;;;5.77;97.76;98309.59;5022612;28;20033;-65
2022/11/29 05:38:20;;;;;;;22.08;15.23;;;;;;;5.75;97.82;98318.41;5026918;28;20036;-65
2022/11/29 05:40:58;;;;;;;25.73;16.27;;;;;;;5.71;97.74;98315.25;5030192;28;20055;-67
2022/11/29 05:43:44;;;;;;;25.88;16.25;;;;;;;5.68;97.73;98315.47;5024150;28;20123;-64
2022/11/29 05:46:16;;;;;;;23.42;15.73;;;;;;;5.73;97.21;98315.94;5007755;28;20111;-67
2022/11/29 05:48:47;;;;;;;23.08;15.57;;;;;;;5.77;97.44;98314.75;5026080;28;20053;-65
2022/11/29 05:51:28;;;;;;;25.65;16.65;;;;;;;5.75;97.52;98320.97;5023859;28;20033;-65
2022/11/29 05:54:08;;;;;;;25.25;16.83;;;;;;;5.84;96.85;98321.97;5028184;28;20033;-66
2022/11/29 05:57:13;;;;;;;25.65;16.88;;;;;;;5.82;96.41;98327.25;5019194;28;20053;-64
2022/11/29 05:59:40;;;;;;;22.88;15.65;;;;;;;5.82;96.79;98321.28;5040893;28;20050;-64
2022/11/29 06:02:37;;;;;;;24.50;16.55;;;;;;;5.86;96.49;98326.09;5017748;28;20037;-64
2022/11/29 06:05:13;;;;;;;23.45;15.80;;;;;;;5.80;96.59;98320.59;5018133;28;20032;-67
2022/11/29 06:08:02;;;;;;;23.13;16.05;;;;;;;5.85;96.88;98321.88;4994883;28;20034;-65
2022/11/29 06:10:34;;;;;;;24.30;16.52;;;;;;;5.77;97.12;98325.06;5030595;28;20034;-65
2022/11/29 06:13:17;;;;;;;22.50;16.35;;;;;;;5.87;95.59;98327.72;5032170;28;20427;-64
2022/11/29 06:16:14;;;;;;;25.92;16.33;;;;;;;5.86;96.08;98328.69;5045933;28;20680;-66
2022/11/29 06:18:45;;;;;;;24.33;16.30;;;;;;;5.80;96.59;98334.31;5028052;28;20755;-66
2022/11/29 06:21:39;;;;;;;27.17;17.10;;;;;;;5.80;96.69;98324.00;5031316;28;20768;-66
2022/11/29 06:24:36;;;;;;;25.30;16.52;;;;;;;5.78;97.38;98333.63;5019126;28;20052;-66
2022/11/29 06:27:28;;;;;;;25.30;16.48;;;;;;;5.68;97.50;98337.88;5035432;28;20056;-64
2022/11/29 06:30:08;;;;;;;25.38;16.45;;;;;;;5.39;98.12;98310.81;5024365;28;20118;-64
2022/11/29 06:32:54;;;;;;;25.17;16.85;;;;;;;5.52;98.22;98344.22;5004805;28;20083;-66
2022/11/29 06:35:49;;;;;;;22.85;15.98;;;;;;;5.49;99.01;98341.88;5015537;28;20029;-65
2022/11/29 06:38:27;;;;;;;26.67;16.98;;;;;;;5.33;98.37;98319.03;5035365;28;20061;-64
2022/11/29 06:40:53;;;;;;;23.70;16.95;;;;;;;5.62;97.68;98344.31;5006123;28;20138;-65
2022/11/29 06:43:19;;;;;;;25.10;15.32;;;;;;;5.58;96.75;98333.44;5004706;28;20048;-64
2022/11/29 06:46:09;;;;;;;25.25;16.17;;;;;;;5.69;95.51;98342.06;5012515;28;20046;-64
2022/11/29 06:48:58;;;;;;;23.88;15.63;;;;;;;5.65;95.78;98353.59;5007400;28;20129;-65
2022/11/29 06:51:33;;;;;;;22.00;15.13;;;;;;;5.69;94.52;98349.81;5016672;28;20787;-69
2022/11/29 06:54:38;;;;;;;22.05;14.73;;;;;;;5.75;95.56;98350.16;5017124;28;20093;-65
2022/11/29 06:57:15;;;;;;;22.48;14.95;;;;;;;5.23;94.93;98265.75;5015265;28;20049;-68
2022/11/29 06:59:44;;;;;;;22.63;14.35;;;;;;;5.48;95.25;98324.78;5035970;28;20029;-66
2022/11/29 07:02:37;;;;;;;22.75;15.65;;;;;;;5.67;95.95;98360.25;5022040;28;20069;-65
2022/11/29 07:05:11;;;;;;;21.80;14.85;;;;;;;5.71;94.93;98366.00;5020122;28;20036;-67
2022/11/29 07:07:36;;;;;;;22.90;15.82;;;;;;;5.73;95.53;98358.94;5015482;28;20030;-65
2022/11/29 07:10:03;;;;;;;25.55;15.40;;;;;;;5.87;94.36;98368.19;5025504;28;20025;-63
2022/11/29 07:12:29;;;;;;;25.30;15.52;;;;;;;5.53;93.84;98322.66;5002490;28;20076;-65
2022/11/29 07:14:54;;;;;;;23.00;15.68;;;;;;;5.85;93.66;98362.34;5016883;28;20033;-67
2022/11/29 07:17:31;;;;;;;22.77;15.23;;;;;;;5.71;94.36;98335.03;5014060;28;20038;-63
2022/11/29 07:20:02;;;;;;;22.65;14.98;;;;;;;5.64;94.30;98328.72;5004093;28;20033;-62
2022/11/29 07:22:57;;;;;;;21.90;14.40;;;;;;;5.87;94.38;98375.94;5026438;28;20041;-68
2022/11/29 07:25:31;;;;;;;24.20;15.63;;;;;;;5.91;93.27;98374.75;5025782;28;20034;-68
2022/11/29 07:28:23;;;;;;;23.27;14.63;;;;;;;5.89;93.68;98374.06;5014057;28;20049;-66
2022/11/29 07:31:24;;;;;;;23.45;15.02;;;;;;;5.88;93.51;98375.00;5009609;28;20038;-67
2022/11/29 07:34:13;;;;;;;22.33;14.27;;;;;;;5.96;92.46;98372.66;5033874;28;20037;-67
2022/11/29 07:37:10;;;;;;;23.60;14.80;;;;;;;5.83;92.20;98353.91;5001436;28;20140;-65
2022/11/29 07:39:58;;;;;;;21.15;14.07;;;;;;;6.08;90.95;98373.47;5019306;28;20453;-65
2022/11/29 07:42:39;;;;;;;23.52;14.73;;;;;;;5.99;92.01;98372.44;4995232;28;20029;-68
2022/11/29 07:45:22;;;;;;;21.20;14.05;;;;;;;6.05;91.04;98373.69;5021277;28;20040;-64
2022/11/29 07:47:49;;;;;;;24.73;14.20;;;;;;;5.88;91.67;98380.97;5002311;28;20108;-68
2022/11/29 07:50:14;;;;;;;25.13;15.18;;;;;;;5.62;91.98;98340.91;5006850;28;20033;-66
2022/11/29 07:52:40;;;;;;;23.52;15.65;;;;;;;5.89;92.58;98382.59;5022429;28;20557;-64
2022/11/29 07:55:05;;;;;;;24.58;15.68;;;;;;;5.89;91.64;98368.91;5021130;28;20106;-65
2022/11/29 07:57:31;;;;;;;23.63;15.63;;;;;;;5.99;91.71;98375.00;5012397;28;20401;-66
2022/11/29 07:59:56;;;;;;;25.38;15.13;;;;;;;6.14;90.48;98383.28;5021107;28;20056;-69
2022/11/29 08:02:27;;;;;;;24.48;15.43;;;;;;;6.07;90.52;98375.22;5027251;28;20024;-66
2022/11/29 08:04:52;;;;;;;22.30;15.55;;;;;;;6.01;89.40;98349.91;5007265;28;20029;-64
2022/11/29 08:07:17;;;;;;;26.17;16.00;;;;;;;6.15;90.24;98372.84;5000857;28;20076;-68
2022/11/29 08:09:43;;;;;;;24.63;15.90;;;;;;;6.19;90.31;98383.75;5019073;28;20033;-65
2022/11/29 08:12:08;;;;;;;22.35;15.23;;;;;;;6.21;91.36;98386.22;5001369;28;20674;-65
2022/11/29 08:14:34;;;;;;;22.92;15.48;;;;;;;6.29;91.23;98389.00;4997227;28;20044;-65
2022/11/29 08:16:59;;;;;;;25.30;15.52;;;;;;;6.41;91.13;98388.00;5006233;28;20129;-65
2022/11/29 08:19:24;;;;;;;26.73;16.63;;;;;;;6.23;90.78;98389.50;5026585;28;20033;-65
2022/11/29 08:21:51;;;;;;;24.42;15.68;;;;;;;6.25;93.21;98387.59;5016997;28;20045;-66
2022/11/29 08:24:16;;;;;;;25.17;16.33;;;;;;;6.25;92.94;98385.03;5020032;28;20037;-65
2022/11/29 08:26:42;;;;;;;26.30;15.82;;;;;;;6.26;93.19;98387.50;5019569;28;20065;-64
2022/11/29 08:29:08;;;;;;;24.15;16.77;;;;;;;6.32;93.11;98389.56;5022121;28;20106;-68
2022/11/29 08:31:33;;;;;;;26.95;16.27;;;;;;;6.32;92.43;98392.16;5020506;28;20612;-65
2022/11/29 08:33:59;;;;;;;24.05;16.65;;;;;;;6.33;92.06;98388.63;5002986;28;20033;-63
2022/11/29 08:36:24;;;;;;;27.02;17.45;;;;;;;6.27;94.28;98394.28;5022638;28;20065;-69
2022/11/29 08:38:50;;;;;;;26.42;15.90;;;;;;;6.25;93.06;98391.00;5013266;28;20029;-68
2022/11/29 08:41:16;;;;;;;23.98;16.48;;;;;;;6.19;93.40;98394.09;5014076;28;20542;-66
2022/11/29 08:43:42;;;;;;;25.45;16.98;;;;;;;5.96;93.98;98359.75;4998457;28;20037;-65
2022/11/29 08:46:08;;;;;;;26.80;16.17;;;;;;;6.26;93.83;98404.72;5016756;28;20532;-66
2022/11/29 08:48:34;;;;;;;29.42;16.45;;;;;;;6.26;94.42;98392.66;5003627;28;20044;-65
2022/11/29 08:51:00;;;;;;;25.33;16.10;;;;;;;6.25;94.45;98396.16;5009048;28;20137;-68
2022/11/29 08:53:40;;;;;;;24.48;15.88;;;;;;;6.26;93.05;98399.56;5017742;28;20025;-66
2022/11/29 08:56:19;;;;;;;22.73;16.13;;;;;;;6.06;94.81;98362.41;4997541;28;20040;-64
2022/11/29 08:58:45;;;;;;;25.92;16.77;;;;;;;6.23;93.99;98405.78;5017712;28;20033;-65
2022/11/29 09:01:16;;;;;;;25.17;15.65;;;;;;;6.34;94.34;98407.53;5005446;28;20040;-67
2022/11/29 09:06:29;;;;;;;24.20;15.70;;;;;;;6.14;95.51;98366.03;5014931;28;20040;-66
2022/11/29 09:08:58;;;;;;;25.02;16.27;;;;;;;6.46;94.20;98410.88;5005542;28;20033;-63
2022/11/29 09:11:25;;;;;;;23.58;15.95;;;;;;;6.56;94.34;98414.38;5018806;28;20021;-66
2022/11/29 09:13:56;;;;;;;22.75;15.05;;;;;;;6.50;93.66;98412.28;5003566;28;20037;-66
2022/11/29 09:16:24;;;;;;;22.15;15.63;;;;;;;6.58;93.49;98420.22;5004044;28;20106;-66
2022/11/29 09:18:50;;;;;;;22.25;15.38;;;;;;;6.57;92.62;98412.59;4993184;28;20030;-65
2022/11/29 09:21:16;;;;;;;24.63;15.80;;;;;;;6.64;92.50;98417.13;5002377;28;20160;-65
2022/11/29 09:23:43;;;;;;;24.92;16.05;;;;;;;6.42;93.56;98394.81;5018634;28;20336;-66
2022/11/29 09:26:10;;;;;;;22.77;13.98;;;;;;;6.64;92.45;98426.66;5021031;28;20060;-64
2022/11/29 09:28:35;;;;;;;21.40;15.32;;;;;;;6.34;92.37;98398.00;5010767;28;20033;-65
2022/11/29 09:31:06;;;;;;;24.58;14.75;;;;;;;6.54;91.91;98421.44;5008893;28;20038;-63
2022/11/29 09:33:32;;;;;;;23.02;14.55;;;;;;;6.63;91.82;98433.59;5004626;28;20033;-68
2022/11/29 09:35:58;;;;;;;23.75;14.80;;;;;;;6.60;92.16;98425.28;5016562;28;20056;-67
2022/11/29 09:38:24;;;;;;;23.02;13.93;;;;;;;6.62;91.88;98425.97;4999232;28;20033;-66
2022/11/29 09:41:01;;;;;;;23.13;14.38;;;;;;;6.61;91.59;98424.31;5023660;28;20087;-66
2022/11/29 09:43:45;;;;;;;23.33;13.75;;;;;;;6.54;91.33;98427.41;5029880;28;20099;-66
2022/11/29 09:46:16;;;;;;;23.83;14.60;;;;;;;6.56;92.06;98416.13;5028666;28;20105;-67
2022/11/29 09:48:42;;;;;;;20.38;13.63;;;;;;;6.39;89.97;98394.22;5025852;28;20037;-65
2022/11/29 09:51:10;;;;;;;20.17;12.75;;;;;;;6.62;90.61;98429.34;5014228;28;20092;-65
2022/11/29 09:54:08;;;;;;;23.70;13.63;;;;;;;6.41;90.45;98375.09;5054744;28;20052;-63
2022/11/29 09:56:42;;;;;;;21.27;12.27;;;;;;;6.71;90.49;98427.81;5004812;28;20780;-66
2022/11/29 09:59:11;;;;;;;20.65;12.88;;;;;;;6.71;90.42;98425.22;5019135;28;20029;-64
2022/11/29 10:01:40;;;;;;;21.30;13.00;;;;;;;6.56;89.16;98406.63;5005688;28;20029;-64
2022/11/29 10:04:11;;;;;;;21.20;12.70;;;;;;;6.76;89.33;98423.09;5020327;28;20033;-65
2022/11/29 10:06:39;;;;;;;22.13;13.35;;;;;;;6.77;88.96;98416.16;5029794;28;20063;-64
2022/11/29 10:09:14;;;;;;;19.35;12.52;;;;;;;6.79;88.72;98417.69;5024789;28;20029;-63
2022/11/29 10:12:04;;;;;;;21.77;13.27;;;;;;;6.81;89.24;98420.09;5001899;28;20428;-65
2022/11/29 10:14:33;;;;;;;;;;;;;;;6.89;88.45;98423.72;5019625;28;20088;-66
2022/11/29 10:17:17;;;;;;;21.52;13.00;;;;;;;6.96;86.58;98418.06;5032523;28;19923;-63
2022/11/29 10:19:55;;;;;;;23.08;12.70;;;;;;;6.97;87.31;98417.09;5018236;28;20033;-67
2022/11/29 10:22:28;;;;;;;26.95;13.98;;;;;;;6.95;88.59;98414.63;5055926;28;20040;-63
2022/11/29 10:24:57;;;;;;;21.05;13.20;;;;;;;7.08;87.75;98412.69;5006643;28;20067;-62
2022/11/29 10:27:23;;;;;;;30.30;14.23;;;;;;;7.07;87.53;98394.72;5005865;28;20021;-68
2022/11/29 10:29:52;;;;;;;22.65;14.15;;;;;;;7.13;86.98;98413.09;5023030;28;20038;-62
2022/11/29 10:32:20;;;;;;;21.85;14.35;;;;;;;7.16;86.59;98408.66;5006207;28;20029;-64
2022/11/29 10:34:46;;;;;;;21.02;14.68;;;;;;;7.21;83.24;98402.16;5024221;28;20119;-64
2022/11/29 10:37:18;;;;;;;23.65;14.68;;;;;;;7.22;83.78;98401.19;5006144;28;20443;-62
2022/11/29 10:39:53;;;;;;;23.90;14.38;;;;;;;7.29;83.25;98404.09;4999492;28;20698;-66
2022/11/29 10:45:17;;;;;;;22.42;14.85;;;;;;;7.24;85.74;98391.53;5021636;28;20091;-69
2022/11/29 10:47:45;;;;;;;22.88;16.15;;;;;;;7.35;84.89;98387.22;5037061;28;20075;-64
2022/11/29 10:50:17;;;;;;;23.15;15.85;;;;;;;7.03;85.87;98390.75;5008348;28;20037;-69
2022/11/29 10:52:43;;;;;;;25.85;16.05;;;;;;;7.04;87.80;98390.59;5001844;28;20142;-66
2022/11/29 10:55:12;;;;;;;24.58;17.25;;;;;;;6.73;89.34;98390.56;5022486;28;20108;-65
2022/11/29 10:58:24;;;;;;;25.00;16.17;;;;;;;6.87;90.83;98381.66;5004284;28;20028;-65
2022/11/29 11:01:11;;;;;;;25.83;17.23;;;;;;;6.72;90.36;98391.50;5021156;28;20033;-67
2022/11/29 11:03:39;;;;;;;26.92;15.93;;;;;;;6.84;89.56;98383.69;5005653;28;20049;-63
2022/11/29 11:06:18;;;;;;;25.48;17.05;;;;;;;6.90;90.67;98372.88;5007679;28;20040;-65
2022/11/29 11:09:20;;;;;;;24.05;16.17;;;;;;;7.01;90.61;98377.13;5013636;28;20040;-65
2022/11/29 11:11:54;;;;;;;28.95;17.13;;;;;;;6.81;90.21;98374.44;5022822;28;20072;-65
2022/11/29 11:14:28;;;;;;;25.45;16.75;;;;;;;7.00;91.79;98378.88;5003611;28;20516;-64
2022/11/29 11:16:54;;;;;;;27.63;17.65;;;;;;;7.09;91.72;98380.69;5026110;28;20464;-68
2022/11/29 11:19:27;;;;;;;29.80;18.25;;;;;;;7.04;91.18;98379.44;5018976;28;20044;-65
2022/11/29 11:21:55;;;;;;;25.42;17.50;;;;;;;7.04;91.75;98372.50;5022747;28;20029;-65
2022/11/29 11:24:24;;;;;;;28.33;18.52;;;;;;;6.93;90.89;98368.22;5001004;28;20029;-67
2022/11/29 11:26:49;;;;;;;27.30;18.48;;;;;;;7.07;90.50;98368.88;5002722;28;20021;-63
2022/11/29 11:29:22;;;;;;;27.60;17.67;;;;;;;7.09;90.77;98367.78;5020514;28;20496;-65
2022/11/29 11:31:56;;;;;;;29.85;17.63;;;;;;;7.04;91.01;98371.69;5007432;28;20029;-64
2022/11/29 11:34:35;;;;;;;25.33;18.02;;;;;;;6.99;91.00;98346.25;5005734;28;20021;-64
2022/11/29 11:37:16;;;;;;;26.75;17.77;;;;;;;7.22;90.22;98366.75;5008375;28;20036;-64
2022/11/29 11:39:43;;;;;;;25.00;17.25;;;;;;;7.08;92.38;98366.16;5046624;28;20860;-62
2022/11/29 11:42:38;;;;;;;27.80;19.15;;;;;;;7.24;91.41;98373.41;5004175;28;20531;-63
2022/11/29 11:45:09;;;;;;;27.27;17.92;;;;;;;7.08;91.74;98318.78;5022020;28;20103;-65
2022/11/29 11:47:38;;;;;;;25.25;17.35;;;;;;;7.39;92.24;98368.75;5019423;28;20128;-66
2022/11/29 11:50:12;;;;;;;27.88;17.27;;;;;;;7.43;92.10;98362.34;5020168;28;20041;-65
2022/11/29 11:52:47;;;;;;;29.58;18.33;;;;;;;7.04;90.66;98325.97;5005332;28;20648;-66
2022/11/29 11:55:37;;;;;;;25.45;17.50;;;;;;;7.51;89.40;98362.50;5017694;28;20033;-64
2022/11/29 11:58:11;;;;;;;25.98;17.08;;;;;;;7.48;90.00;98370.53;5017797;28;20080;-62
2022/11/29 12:00:39;;;;;;;29.70;18.52;;;;;;;7.25;90.08;98333.69;5023517;28;20083;-64
2022/11/29 12:03:06;;;;;;;29.10;17.27;;;;;;;7.55;89.28;98363.06;5022746;28;20116;-63
2022/11/29 12:05:31;;;;;;;29.13;18.63;;;;;;;7.46;89.41;98358.69;5033805;28;20087;-65
2022/11/29 12:07:58;;;;;;;29.42;19.60;;;;;;;7.58;87.48;98355.03;5017929;28;20037;-65
2022/11/29 12:10:27;;;;;;;29.20;18.60;;;;;;;7.58;86.79;98370.56;5001671;28;20029;-68